sensor_id;sensor_type;location;lat;lon;timestamp;temperature;humidity
33011;DHT22;19370;48.562;9.196;2022-12-10T00:00:38;0.70;99.90
33011;DHT22;19370;48.562;9.196;2022-12-10T00:03:03;0.70;99.90
33011;DHT22;19370;48.562;9.196;2022-12-10T00:05:29;0.70;99.90
33011;DHT22;19370;48.562;9.196;2022-12-10T00:07:58;0.80;99.90
33011;DHT22;19370;48.562;9.196;2022-12-10T00:10:23;0.70;99.90
33011;DHT22;19370;48.562;9.196;2022-12-10T00:12:49;0.80;99.90
33011;DHT22;19370;48.562;9.196;2022-12-10T00:15:15;0.70;99.90
33011;DHT22;19370;48.562;9.196;2022-12-10T00:17:43;0.80;99.90
33011;DHT22;19370;48.562;9.196;2022-12-10T00:20:09;0.70;99.90
33011;DHT22;19370;48.562;9.196;2022-12-10T00:22:35;0.70;99.90
33011;DHT22;19370;48.562;9.196;2022-12-10T00:25:01;0.70;99.90
33011;DHT22;19370;48.562;9.196;2022-12-10T00:27:27;0.70;99.90
33011;DHT22;19370;48.562;9.196;2022-12-10T00:29:52;0.70;99.90
33011;DHT22;19370;48.562;9.196;2022-12-10T00:32:18;0.70;99.90
33011;DHT22;19370;48.562;9.196;2022-12-10T00:34:44;0.70;99.90
33011;DHT22;19370;48.562;9.196;2022-12-10T00:37:10;0.70;99.90
33011;DHT22;19370;48.562;9.196;2022-12-10T00:39:35;0.70;99.90
33011;DHT22;19370;48.562;9.196;2022-12-10T00:42:01;0.70;99.90
33011;DHT22;19370;48.562;9.196;2022-12-10T00:44:27;0.70;99.90
33011;DHT22;19370;48.562;9.196;2022-12-10T00:46:53;0.70;99.90
33011;DHT22;19370;48.562;9.196;2022-12-10T00:49:19;0.70;99.90
33011;DHT22;19370;48.562;9.196;2022-12-10T00:51:49;0.80;99.90
33011;DHT22;19370;48.562;9.196;2022-12-10T00:54:15;0.80;99.90
33011;DHT22;19370;48.562;9.196;2022-12-10T00:56:41;0.70;99.90
33011;DHT22;19370;48.562;9.196;2022-12-10T00:59:07;0.70;99.90
33011;DHT22;19370;48.562;9.196;2022-12-10T01:01:38;0.70;99.90
33011;DHT22;19370;48.562;9.196;2022-12-10T01:04:07;0.70;99.90
33011;DHT22;19370;48.562;9.196;2022-12-10T01:06:36;0.80;99.90
33011;DHT22;19370;48.562;9.196;2022-12-10T01:09:07;0.80;99.90
33011;DHT22;19370;48.562;9.196;2022-12-10T01:11:37;0.80;99.90
33011;DHT22;19370;48.562;9.196;2022-12-10T01:14:05;0.70;99.90
33011;DHT22;19370;48.562;9.196;2022-12-10T01:16:32;0.80;99.90
33011;DHT22;19370;48.562;9.196;2022-12-10T01:18:58;0.80;99.90
33011;DHT22;19370;48.562;9.196;2022-12-10T01:21:26;0.80;99.90
33011;DHT22;19370;48.562;9.196;2022-12-10T01:23:52;0.80;99.90
33011;DHT22;19370;48.562;9.196;2022-12-10T01:26:27;0.80;99.90
33011;DHT22;19370;48.562;9.196;2022-12-10T01:28:54;0.80;99.90
33011;DHT22;19370;48.562;9.196;2022-12-10T01:31:27;0.80;99.90
33011;DHT22;19370;48.562;9.196;2022-12-10T01:33:53;0.80;99.90
33011;DHT22;19370;48.562;9.196;2022-12-10T01:36:22;0.90;99.90
33011;DHT22;19370;48.562;9.196;2022-12-10T01:38:51;0.80;99.90
33011;DHT22;19370;48.562;9.196;2022-12-10T01:41:23;0.80;99.90
33011;DHT22;19370;48.562;9.196;2022-12-10T01:46:23;0.90;99.90
33011;DHT22;19370;48.562;9.196;2022-12-10T01:48:50;0.80;99.90
33011;DHT22;19370;48.562;9.196;2022-12-10T01:51:16;0.80;99.90
33011;DHT22;19370;48.562;9.196;2022-12-10T01:53:43;0.80;99.90
33011;DHT22;19370;48.562;9.196;2022-12-10T01:56:11;0.80;99.90
33011;DHT22;19370;48.562;9.196;2022-12-10T01:58:37;0.80;99.90
33011;DHT22;19370;48.562;9.196;2022-12-10T02:01:14;0.80;99.90
33011;DHT22;19370;48.562;9.196;2022-12-10T02:03:56;0.80;99.90
33011;DHT22;19370;48.562;9.196;2022-12-10T02:09:19;0.80;99.90
33011;DHT22;19370;48.562;9.196;2022-12-10T02:12:07;0.80;99.90
33011;DHT22;19370;48.562;9.196;2022-12-10T02:17:42;0.70;99.90
33011;DHT22;19370;48.562;9.196;2022-12-10T02:23:00;0.80;99.90
33011;DHT22;19370;48.562;9.196;2022-12-10T02:25:56;0.80;99.90
33011;DHT22;19370;48.562;9.196;2022-12-10T02:28:40;0.80;99.90
33011;DHT22;19370;48.562;9.196;2022-12-10T02:31:09;0.80;99.90
33011;DHT22;19370;48.562;9.196;2022-12-10T02:33:39;0.80;99.90
33011;DHT22;19370;48.562;9.196;2022-12-10T02:36:07;0.80;99.90
33011;DHT22;19370;48.562;9.196;2022-12-10T02:38:36;0.80;99.90
33011;DHT22;19370;48.562;9.196;2022-12-10T02:41:10;0.80;99.90
33011;DHT22;19370;48.562;9.196;2022-12-10T02:43:39;0.80;99.90
33011;DHT22;19370;48.562;9.196;2022-12-10T02:46:06;0.80;99.90
33011;DHT22;19370;48.562;9.196;2022-12-10T02:48:33;0.80;99.90
33011;DHT22;19370;48.562;9.196;2022-12-10T02:50:59;0.80;99.90
33011;DHT22;19370;48.562;9.196;2022-12-10T02:53:25;0.80;99.90
33011;DHT22;19370;48.562;9.196;2022-12-10T03:04:44;0.80;99.90
33011;DHT22;19370;48.562;9.196;2022-12-10T03:07:18;0.80;99.90
33011;DHT22;19370;48.562;9.196;2022-12-10T03:09:59;0.80;99.90
33011;DHT22;19370;48.562;9.196;2022-12-10T03:12:37;0.80;99.90
33011;DHT22;19370;48.562;9.196;2022-12-10T03:15:07;0.80;99.90
33011;DHT22;19370;48.562;9.196;2022-12-10T03:17:35;0.80;99.90
33011;DHT22;19370;48.562;9.196;2022-12-10T03:20:02;0.70;99.90
33011;DHT22;19370;48.562;9.196;2022-12-10T03:22:29;0.60;99.90
33011;DHT22;19370;48.562;9.196;2022-12-10T03:24:55;0.60;99.90
33011;DHT22;19370;48.562;9.196;2022-12-10T03:27:23;0.60;99.90
33011;DHT22;19370;48.562;9.196;2022-12-10T03:29:54;0.50;99.90
33011;DHT22;19370;48.562;9.196;2022-12-10T03:32:26;0.50;99.90
33011;DHT22;19370;48.562;9.196;2022-12-10T03:34:55;0.60;99.90
33011;DHT22;19370;48.562;9.196;2022-12-10T03:37:22;0.60;99.90
33011;DHT22;19370;48.562;9.196;2022-12-10T03:39:48;0.60;99.90
33011;DHT22;19370;48.562;9.196;2022-12-10T03:42:14;0.60;99.90
33011;DHT22;19370;48.562;9.196;2022-12-10T03:44:40;0.60;99.90
33011;DHT22;19370;48.562;9.196;2022-12-10T03:47:08;0.60;99.90
33011;DHT22;19370;48.562;9.196;2022-12-10T03:49:34;0.60;99.90
33011;DHT22;19370;48.562;9.196;2022-12-10T03:52:00;0.70;99.90
33011;DHT22;19370;48.562;9.196;2022-12-10T03:54:26;0.70;99.90
33011;DHT22;19370;48.562;9.196;2022-12-10T03:56:51;0.70;99.90
33011;DHT22;19370;48.562;9.196;2022-12-10T03:59:17;0.80;99.90
33011;DHT22;19370;48.562;9.196;2022-12-10T04:01:44;0.80;99.90
33011;DHT22;19370;48.562;9.196;2022-12-10T04:04:10;0.80;99.90
33011;DHT22;19370;48.562;9.196;2022-12-10T04:06:38;0.80;99.90
33011;DHT22;19370;48.562;9.196;2022-12-10T04:09:03;0.70;99.90
33011;DHT22;19370;48.562;9.196;2022-12-10T04:11:29;0.70;99.90
33011;DHT22;19370;48.562;9.196;2022-12-10T04:13:55;0.80;99.90
33011;DHT22;19370;48.562;9.196;2022-12-10T04:16:40;0.80;99.90
33011;DHT22;19370;48.562;9.196;2022-12-10T04:19:11;0.90;99.90
33011;DHT22;19370;48.562;9.196;2022-12-10T04:21:39;0.90;99.90
33011;DHT22;19370;48.562;9.196;2022-12-10T04:24:26;0.80;99.90
33011;DHT22;19370;48.562;9.196;2022-12-10T04:29:42;0.80;99.90
33011;DHT22;19370;48.562;9.196;2022-12-10T04:32:08;0.80;99.90
33011;DHT22;19370;48.562;9.196;2022-12-10T04:34:34;0.80;99.90
33011;DHT22;19370;48.562;9.196;2022-12-10T04:37:01;0.80;99.90
33011;DHT22;19370;48.562;9.196;2022-12-10T04:39:27;0.80;99.90
33011;DHT22;19370;48.562;9.196;2022-12-10T04:41:53;0.80;99.90
33011;DHT22;19370;48.562;9.196;2022-12-10T04:44:19;0.80;99.90
33011;DHT22;19370;48.562;9.196;2022-12-10T04:46:45;0.80;99.90
33011;DHT22;19370;48.562;9.196;2022-12-10T04:49:11;0.90;99.90
33011;DHT22;19370;48.562;9.196;2022-12-10T04:51:37;0.80;99.90
33011;DHT22;19370;48.562;9.196;2022-12-10T04:54:06;0.80;99.90
33011;DHT22;19370;48.562;9.196;2022-12-10T04:56:33;0.80;99.90
33011;DHT22;19370;48.562;9.196;2022-12-10T04:58:59;0.80;99.90
33011;DHT22;19370;48.562;9.196;2022-12-10T05:01:26;0.80;99.90
33011;DHT22;19370;48.562;9.196;2022-12-10T05:03:52;0.80;99.90
33011;DHT22;19370;48.562;9.196;2022-12-10T05:06:19;0.80;99.90
33011;DHT22;19370;48.562;9.196;2022-12-10T05:08:45;0.80;99.90
33011;DHT22;19370;48.562;9.196;2022-12-10T05:11:13;0.80;99.90
33011;DHT22;19370;48.562;9.196;2022-12-10T05:13:40;0.80;99.90
33011;DHT22;19370;48.562;9.196;2022-12-10T05:16:08;0.70;99.90
33011;DHT22;19370;48.562;9.196;2022-12-10T05:18:35;0.70;99.90
33011;DHT22;19370;48.562;9.196;2022-12-10T05:21:04;0.70;99.90
33011;DHT22;19370;48.562;9.196;2022-12-10T05:23:30;0.70;99.90
33011;DHT22;19370;48.562;9.196;2022-12-10T05:31:21;0.70;99.90
33011;DHT22;19370;48.562;9.196;2022-12-10T05:33:48;0.70;99.90
33011;DHT22;19370;48.562;9.196;2022-12-10T05:36:17;0.70;99.90
33011;DHT22;19370;48.562;9.196;2022-12-10T05:38:43;0.70;99.90
33011;DHT22;19370;48.562;9.196;2022-12-10T05:41:18;0.70;99.90
33011;DHT22;19370;48.562;9.196;2022-12-10T05:43:44;0.70;99.90
33011;DHT22;19370;48.562;9.196;2022-12-10T05:46:13;0.60;99.90
33011;DHT22;19370;48.562;9.196;2022-12-10T05:48:39;0.70;99.90
33011;DHT22;19370;48.562;9.196;2022-12-10T05:51:07;0.60;99.90
33011;DHT22;19370;48.562;9.196;2022-12-10T05:53:33;0.70;99.90
33011;DHT22;19370;48.562;9.196;2022-12-10T05:56:05;0.70;99.90
33011;DHT22;19370;48.562;9.196;2022-12-10T05:58:32;0.70;99.90
33011;DHT22;19370;48.562;9.196;2022-12-10T06:00:58;0.70;99.90
33011;DHT22;19370;48.562;9.196;2022-12-10T06:03:26;0.60;99.90
33011;DHT22;19370;48.562;9.196;2022-12-10T06:05:52;0.60;99.90
33011;DHT22;19370;48.562;9.196;2022-12-10T06:08:18;0.60;99.90
33011;DHT22;19370;48.562;9.196;2022-12-10T06:10:44;0.60;99.90
33011;DHT22;19370;48.562;9.196;2022-12-10T06:13:10;0.60;99.90
33011;DHT22;19370;48.562;9.196;2022-12-10T06:15:39;0.70;99.90
33011;DHT22;19370;48.562;9.196;2022-12-10T06:18:05;0.70;99.90
33011;DHT22;19370;48.562;9.196;2022-12-10T06:20:32;0.60;99.90
33011;DHT22;19370;48.562;9.196;2022-12-10T06:22:58;0.70;99.90
33011;DHT22;19370;48.562;9.196;2022-12-10T06:25:24;0.50;99.90
33011;DHT22;19370;48.562;9.196;2022-12-10T06:27:49;0.60;99.90
33011;DHT22;19370;48.562;9.196;2022-12-10T06:30:15;0.60;99.90
33011;DHT22;19370;48.562;9.196;2022-12-10T06:32:41;0.60;99.90
33011;DHT22;19370;48.562;9.196;2022-12-10T06:35:09;0.60;99.90
33011;DHT22;19370;48.562;9.196;2022-12-10T06:37:35;0.60;99.90
33011;DHT22;19370;48.562;9.196;2022-12-10T06:40:02;0.60;99.90
33011;DHT22;19370;48.562;9.196;2022-12-10T06:42:28;0.60;99.90
33011;DHT22;19370;48.562;9.196;2022-12-10T06:44:53;0.60;99.90
33011;DHT22;19370;48.562;9.196;2022-12-10T06:47:19;0.60;99.90
33011;DHT22;19370;48.562;9.196;2022-12-10T06:49:44;0.60;99.90
33011;DHT22;19370;48.562;9.196;2022-12-10T06:52:10;0.50;99.90
33011;DHT22;19370;48.562;9.196;2022-12-10T06:54:36;0.50;99.90
33011;DHT22;19370;48.562;9.196;2022-12-10T06:57:01;0.50;99.90
33011;DHT22;19370;48.562;9.196;2022-12-10T06:59:27;0.50;99.90
33011;DHT22;19370;48.562;9.196;2022-12-10T07:01:53;0.40;99.90
33011;DHT22;19370;48.562;9.196;2022-12-10T07:04:19;0.40;99.90
33011;DHT22;19370;48.562;9.196;2022-12-10T07:06:45;0.40;99.90
33011;DHT22;19370;48.562;9.196;2022-12-10T07:09:10;0.40;99.90
33011;DHT22;19370;48.562;9.196;2022-12-10T07:11:37;0.50;99.90
33011;DHT22;19370;48.562;9.196;2022-12-10T07:14:03;0.50;99.90
33011;DHT22;19370;48.562;9.196;2022-12-10T07:16:31;0.40;99.90
33011;DHT22;19370;48.562;9.196;2022-12-10T07:18:59;0.40;99.90
33011;DHT22;19370;48.562;9.196;2022-12-10T07:21:27;0.40;99.90
33011;DHT22;19370;48.562;9.196;2022-12-10T07:23:56;0.40;99.90
33011;DHT22;19370;48.562;9.196;2022-12-10T07:26:28;0.40;99.90
33011;DHT22;19370;48.562;9.196;2022-12-10T07:28:55;0.40;99.90
33011;DHT22;19370;48.562;9.196;2022-12-10T07:31:21;0.40;99.90
33011;DHT22;19370;48.562;9.196;2022-12-10T07:33:48;0.40;99.90
33011;DHT22;19370;48.562;9.196;2022-12-10T07:36:14;0.50;99.90
33011;DHT22;19370;48.562;9.196;2022-12-10T07:38:40;0.50;99.90
33011;DHT22;19370;48.562;9.196;2022-12-10T07:41:08;0.50;99.90
33011;DHT22;19370;48.562;9.196;2022-12-10T07:43:36;0.50;99.90
33011;DHT22;19370;48.562;9.196;2022-12-10T07:46:10;0.50;99.90
33011;DHT22;19370;48.562;9.196;2022-12-10T07:48:37;0.60;99.90
33011;DHT22;19370;48.562;9.196;2022-12-10T07:51:04;0.60;99.90
33011;DHT22;19370;48.562;9.196;2022-12-10T07:53:31;0.60;99.90
33011;DHT22;19370;48.562;9.196;2022-12-10T07:55:57;0.60;99.90
33011;DHT22;19370;48.562;9.196;2022-12-10T07:58:23;0.70;99.90
33011;DHT22;19370;48.562;9.196;2022-12-10T08:00:49;0.70;99.90
33011;DHT22;19370;48.562;9.196;2022-12-10T08:03:14;0.60;99.90
33011;DHT22;19370;48.562;9.196;2022-12-10T08:05:40;0.70;99.90
33011;DHT22;19370;48.562;9.196;2022-12-10T08:08:06;0.70;99.90
33011;DHT22;19370;48.562;9.196;2022-12-10T08:10:36;0.70;99.90
33011;DHT22;19370;48.562;9.196;2022-12-10T08:13:02;0.70;99.90
33011;DHT22;19370;48.562;9.196;2022-12-10T08:15:28;0.70;99.90
33011;DHT22;19370;48.562;9.196;2022-12-10T08:17:55;0.60;99.90
33011;DHT22;19370;48.562;9.196;2022-12-10T08:20:21;0.70;99.90
33011;DHT22;19370;48.562;9.196;2022-12-10T08:22:47;0.60;99.90
33011;DHT22;19370;48.562;9.196;2022-12-10T08:25:13;0.70;99.90
33011;DHT22;19370;48.562;9.196;2022-12-10T08:27:39;0.70;99.90
33011;DHT22;19370;48.562;9.196;2022-12-10T08:30:05;0.70;99.90
33011;DHT22;19370;48.562;9.196;2022-12-10T08:32:31;0.80;99.90
33011;DHT22;19370;48.562;9.196;2022-12-10T08:34:57;0.80;99.90
33011;DHT22;19370;48.562;9.196;2022-12-10T08:37:22;0.80;99.90
33011;DHT22;19370;48.562;9.196;2022-12-10T08:39:48;0.80;99.90
33011;DHT22;19370;48.562;9.196;2022-12-10T08:42:14;0.90;99.90
33011;DHT22;19370;48.562;9.196;2022-12-10T08:44:40;0.90;99.90
33011;DHT22;19370;48.562;9.196;2022-12-10T08:47:06;0.90;99.90
33011;DHT22;19370;48.562;9.196;2022-12-10T08:49:32;0.90;99.90
33011;DHT22;19370;48.562;9.196;2022-12-10T08:51:57;1.00;99.90
33011;DHT22;19370;48.562;9.196;2022-12-10T08:54:23;1.00;99.90
33011;DHT22;19370;48.562;9.196;2022-12-10T08:56:49;1.00;99.90
33011;DHT22;19370;48.562;9.196;2022-12-10T08:59:15;1.00;99.90
33011;DHT22;19370;48.562;9.196;2022-12-10T09:01:40;1.10;99.90
33011;DHT22;19370;48.562;9.196;2022-12-10T09:04:06;1.10;99.90
33011;DHT22;19370;48.562;9.196;2022-12-10T09:06:32;1.10;99.90
33011;DHT22;19370;48.562;9.196;2022-12-10T09:08:58;1.20;99.90
33011;DHT22;19370;48.562;9.196;2022-12-10T09:11:26;1.40;99.90
33011;DHT22;19370;48.562;9.196;2022-12-10T09:13:53;1.40;99.90
33011;DHT22;19370;48.562;9.196;2022-12-10T09:16:19;1.40;99.90
33011;DHT22;19370;48.562;9.196;2022-12-10T09:18:45;1.50;99.90
33011;DHT22;19370;48.562;9.196;2022-12-10T09:21:13;1.60;99.90
33011;DHT22;19370;48.562;9.196;2022-12-10T09:23:40;1.50;99.90
33011;DHT22;19370;48.562;9.196;2022-12-10T09:26:12;1.50;99.90
33011;DHT22;19370;48.562;9.196;2022-12-10T09:28:39;1.30;99.90
33011;DHT22;19370;48.562;9.196;2022-12-10T09:31:06;1.30;99.90
33011;DHT22;19370;48.562;9.196;2022-12-10T09:33:32;1.30;99.90
33011;DHT22;19370;48.562;9.196;2022-12-10T09:35:58;1.30;99.90
33011;DHT22;19370;48.562;9.196;2022-12-10T09:38:24;1.30;99.90
33011;DHT22;19370;48.562;9.196;2022-12-10T09:41:03;1.30;99.90
33011;DHT22;19370;48.562;9.196;2022-12-10T09:51:39;1.30;99.90
33011;DHT22;19370;48.562;9.196;2022-12-10T09:54:19;1.40;99.90
33011;DHT22;19370;48.562;9.196;2022-12-10T09:56:48;1.40;99.90
33011;DHT22;19370;48.562;9.196;2022-12-10T09:59:31;1.50;99.90
33011;DHT22;19370;48.562;9.196;2022-12-10T10:02:19;1.50;99.90
33011;DHT22;19370;48.562;9.196;2022-12-10T10:04:45;1.50;99.90
33011;DHT22;19370;48.562;9.196;2022-12-10T10:07:24;1.50;99.90
33011;DHT22;19370;48.562;9.196;2022-12-10T10:09:56;1.50;99.90
33011;DHT22;19370;48.562;9.196;2022-12-10T10:12:23;1.60;99.90
33011;DHT22;19370;48.562;9.196;2022-12-10T10:14:49;1.60;99.90
33011;DHT22;19370;48.562;9.196;2022-12-10T10:17:27;1.60;99.90
33011;DHT22;19370;48.562;9.196;2022-12-10T10:19:54;1.70;99.90
33011;DHT22;19370;48.562;9.196;2022-12-10T10:22:20;1.80;99.90
33011;DHT22;19370;48.562;9.196;2022-12-10T10:24:46;1.80;99.90
33011;DHT22;19370;48.562;9.196;2022-12-10T10:27:18;1.80;99.90
33011;DHT22;19370;48.562;9.196;2022-12-10T10:29:48;1.80;99.90
33011;DHT22;19370;48.562;9.196;2022-12-10T10:32:23;1.90;99.90
33011;DHT22;19370;48.562;9.196;2022-12-10T10:34:58;1.80;99.90
33011;DHT22;19370;48.562;9.196;2022-12-10T10:40:01;1.90;99.90
33011;DHT22;19370;48.562;9.196;2022-12-10T10:42:55;1.90;99.90
33011;DHT22;19370;48.562;9.196;2022-12-10T10:45:41;1.90;99.90
33011;DHT22;19370;48.562;9.196;2022-12-10T10:48:12;2.00;99.90
33011;DHT22;19370;48.562;9.196;2022-12-10T10:50:41;2.00;99.90
33011;DHT22;19370;48.562;9.196;2022-12-10T10:55:52;2.00;99.90
33011;DHT22;19370;48.562;9.196;2022-12-10T10:58:20;2.00;99.90
33011;DHT22;19370;48.562;9.196;2022-12-10T11:01:04;2.00;99.90
33011;DHT22;19370;48.562;9.196;2022-12-10T11:03:33;2.00;99.90
33011;DHT22;19370;48.562;9.196;2022-12-10T11:06:00;2.00;99.90
33011;DHT22;19370;48.562;9.196;2022-12-10T11:08:30;2.00;99.90
33011;DHT22;19370;48.562;9.196;2022-12-10T11:11:11;2.00;99.90
33011;DHT22;19370;48.562;9.196;2022-12-10T11:13:37;2.00;99.90
33011;DHT22;19370;48.562;9.196;2022-12-10T11:16:19;1.90;99.90
33011;DHT22;19370;48.562;9.196;2022-12-10T11:18:58;2.00;99.90
33011;DHT22;19370;48.562;9.196;2022-12-10T11:21:29;2.00;99.90
33011;DHT22;19370;48.562;9.196;2022-12-10T11:23:56;2.10;99.90
33011;DHT22;19370;48.562;9.196;2022-12-10T11:35:36;2.20;99.90
33011;DHT22;19370;48.562;9.196;2022-12-10T11:40:55;2.10;99.90
33011;DHT22;19370;48.562;9.196;2022-12-10T11:44:40;2.00;99.90
33011;DHT22;19370;48.562;9.196;2022-12-10T11:49:38;2.00;99.90
33011;DHT22;19370;48.562;9.196;2022-12-10T11:52:35;1.90;99.90
33011;DHT22;19370;48.562;9.196;2022-12-10T12:16:49;1.90;99.90
33011;DHT22;19370;48.562;9.196;2022-12-10T12:19:28;1.90;99.90
33011;DHT22;19370;48.562;9.196;2022-12-10T12:21:56;2.00;99.90
33011;DHT22;19370;48.562;9.196;2022-12-10T12:24:34;1.90;99.90
33011;DHT22;19370;48.562;9.196;2022-12-10T12:29:45;1.90;99.90
33011;DHT22;19370;48.562;9.196;2022-12-10T12:32:23;2.00;99.90
33011;DHT22;19370;48.562;9.196;2022-12-10T12:34:59;2.00;99.90
33011;DHT22;19370;48.562;9.196;2022-12-10T12:37:46;2.00;99.90
33011;DHT22;19370;48.562;9.196;2022-12-10T12:40:27;2.10;99.90
33011;DHT22;19370;48.562;9.196;2022-12-10T12:45:32;2.20;99.90
33011;DHT22;19370;48.562;9.196;2022-12-10T12:48:17;2.20;99.90
33011;DHT22;19370;48.562;9.196;2022-12-10T12:50:46;2.20;99.90
33011;DHT22;19370;48.562;9.196;2022-12-10T12:53:16;2.10;99.90
33011;DHT22;19370;48.562;9.196;2022-12-10T13:03:59;2.10;99.90
33011;DHT22;19370;48.562;9.196;2022-12-10T13:06:30;2.20;99.90
33011;DHT22;19370;48.562;9.196;2022-12-10T13:11:42;2.00;99.90
33011;DHT22;19370;48.562;9.196;2022-12-10T13:22:09;2.10;99.90
33011;DHT22;19370;48.562;9.196;2022-12-10T13:29:58;2.10;99.90
33011;DHT22;19370;48.562;9.196;2022-12-10T13:40:38;2.00;99.90
33011;DHT22;19370;48.562;9.196;2022-12-10T13:43:36;2.00;99.90
33011;DHT22;19370;48.562;9.196;2022-12-10T13:46:34;2.00;99.90
33011;DHT22;19370;48.562;9.196;2022-12-10T13:49:02;1.90;99.90
33011;DHT22;19370;48.562;9.196;2022-12-10T13:54:26;1.80;99.90
33011;DHT22;19370;48.562;9.196;2022-12-10T13:57:15;1.80;99.90
33011;DHT22;19370;48.562;9.196;2022-12-10T14:00:01;1.80;99.90
33011;DHT22;19370;48.562;9.196;2022-12-10T14:05:27;1.90;99.90
33011;DHT22;19370;48.562;9.196;2022-12-10T14:08:00;1.90;99.90
33011;DHT22;19370;48.562;9.196;2022-12-10T14:10:31;1.90;99.90
33011;DHT22;19370;48.562;9.196;2022-12-10T14:12:59;1.90;99.90
33011;DHT22;19370;48.562;9.196;2022-12-10T14:15:27;1.80;99.90
33011;DHT22;19370;48.562;9.196;2022-12-10T14:18:02;1.80;99.90
33011;DHT22;19370;48.562;9.196;2022-12-10T14:20:30;1.80;99.90
33011;DHT22;19370;48.562;9.196;2022-12-10T14:23:04;1.70;99.90
33011;DHT22;19370;48.562;9.196;2022-12-10T14:25:48;1.70;99.90
33011;DHT22;19370;48.562;9.196;2022-12-10T14:28:18;1.70;99.90
33011;DHT22;19370;48.562;9.196;2022-12-10T14:30:46;1.70;99.90
33011;DHT22;19370;48.562;9.196;2022-12-10T14:33:16;1.70;99.90
33011;DHT22;19370;48.562;9.196;2022-12-10T14:35:50;1.60;99.90
33011;DHT22;19370;48.562;9.196;2022-12-10T14:38:31;1.60;99.90
33011;DHT22;19370;48.562;9.196;2022-12-10T14:40:59;1.50;99.90
33011;DHT22;19370;48.562;9.196;2022-12-10T14:43:38;1.40;99.90
33011;DHT22;19370;48.562;9.196;2022-12-10T14:46:17;1.40;99.90
33011;DHT22;19370;48.562;9.196;2022-12-10T14:48:46;1.30;99.90
33011;DHT22;19370;48.562;9.196;2022-12-10T14:51:14;1.30;99.90
33011;DHT22;19370;48.562;9.196;2022-12-10T14:53:41;1.30;99.90
33011;DHT22;19370;48.562;9.196;2022-12-10T14:56:08;1.30;99.90
33011;DHT22;19370;48.562;9.196;2022-12-10T14:59:13;1.30;99.90
33011;DHT22;19370;48.562;9.196;2022-12-10T15:01:43;1.30;99.90
33011;DHT22;19370;48.562;9.196;2022-12-10T15:04:17;1.30;99.90
33011;DHT22;19370;48.562;9.196;2022-12-10T15:06:44;1.30;99.90
33011;DHT22;19370;48.562;9.196;2022-12-10T15:09:19;1.30;99.90
33011;DHT22;19370;48.562;9.196;2022-12-10T15:11:45;1.30;99.90
33011;DHT22;19370;48.562;9.196;2022-12-10T15:14:19;1.20;99.90
33011;DHT22;19370;48.562;9.196;2022-12-10T15:16:46;1.20;99.90
33011;DHT22;19370;48.562;9.196;2022-12-10T15:21:59;1.20;99.90
33011;DHT22;19370;48.562;9.196;2022-12-10T15:24:28;1.20;99.90
33011;DHT22;19370;48.562;9.196;2022-12-10T15:27:00;1.20;99.90
33011;DHT22;19370;48.562;9.196;2022-12-10T15:32:14;1.20;99.90
33011;DHT22;19370;48.562;9.196;2022-12-10T15:34:48;1.10;99.90
33011;DHT22;19370;48.562;9.196;2022-12-10T15:37:21;1.00;99.90
33011;DHT22;19370;48.562;9.196;2022-12-10T15:39:52;1.10;99.90
33011;DHT22;19370;48.562;9.196;2022-12-10T15:42:45;1.10;99.90
33011;DHT22;19370;48.562;9.196;2022-12-10T15:45:23;1.00;99.90
33011;DHT22;19370;48.562;9.196;2022-12-10T15:47:52;1.00;99.90
33011;DHT22;19370;48.562;9.196;2022-12-10T15:50:19;1.00;99.90
33011;DHT22;19370;48.562;9.196;2022-12-10T15:52:45;1.00;99.90
33011;DHT22;19370;48.562;9.196;2022-12-10T15:55:12;1.00;99.90
33011;DHT22;19370;48.562;9.196;2022-12-10T15:57:40;1.00;99.90
33011;DHT22;19370;48.562;9.196;2022-12-10T16:00:26;1.00;99.90
33011;DHT22;19370;48.562;9.196;2022-12-10T16:03:02;1.00;99.90
33011;DHT22;19370;48.562;9.196;2022-12-10T16:05:31;0.90;99.90
33011;DHT22;19370;48.562;9.196;2022-12-10T16:08:00;0.90;99.90
33011;DHT22;19370;48.562;9.196;2022-12-10T16:10:28;0.90;99.90
33011;DHT22;19370;48.562;9.196;2022-12-10T16:13:02;0.90;99.90
33011;DHT22;19370;48.562;9.196;2022-12-10T16:15:35;0.90;99.90
33011;DHT22;19370;48.562;9.196;2022-12-10T16:18:04;0.80;99.90
33011;DHT22;19370;48.562;9.196;2022-12-10T16:20:31;0.80;99.90
33011;DHT22;19370;48.562;9.196;2022-12-10T16:22:59;0.90;99.90
33011;DHT22;19370;48.562;9.196;2022-12-10T16:25:28;0.90;99.90
33011;DHT22;19370;48.562;9.196;2022-12-10T16:27:55;0.90;99.90
33011;DHT22;19370;48.562;9.196;2022-12-10T16:30:36;0.90;99.90
33011;DHT22;19370;48.562;9.196;2022-12-10T16:33:03;0.90;99.90
33011;DHT22;19370;48.562;9.196;2022-12-10T16:35:30;0.90;99.90
33011;DHT22;19370;48.562;9.196;2022-12-10T16:37:56;0.90;99.90
33011;DHT22;19370;48.562;9.196;2022-12-10T16:40:24;0.80;99.90
33011;DHT22;19370;48.562;9.196;2022-12-10T16:42:51;0.90;99.90
33011;DHT22;19370;48.562;9.196;2022-12-10T16:45:30;0.90;99.90
33011;DHT22;19370;48.562;9.196;2022-12-10T16:47:57;0.90;99.90
33011;DHT22;19370;48.562;9.196;2022-12-10T16:50:23;0.80;99.90
33011;DHT22;19370;48.562;9.196;2022-12-10T16:52:50;0.80;99.90
33011;DHT22;19370;48.562;9.196;2022-12-10T16:55:19;0.80;99.90
33011;DHT22;19370;48.562;9.196;2022-12-10T16:57:46;0.80;99.90
33011;DHT22;19370;48.562;9.196;2022-12-10T17:00:17;0.80;99.90
33011;DHT22;19370;48.562;9.196;2022-12-10T17:02:45;0.80;99.90
33011;DHT22;19370;48.562;9.196;2022-12-10T17:05:29;0.70;99.90
33011;DHT22;19370;48.562;9.196;2022-12-10T17:07:56;0.80;99.90
33011;DHT22;19370;48.562;9.196;2022-12-10T17:10:24;0.80;99.90
33011;DHT22;19370;48.562;9.196;2022-12-10T17:13:13;0.70;99.90
33011;DHT22;19370;48.562;9.196;2022-12-10T17:15:40;0.70;99.90
33011;DHT22;19370;48.562;9.196;2022-12-10T17:18:12;0.70;99.90
33011;DHT22;19370;48.562;9.196;2022-12-10T17:20:38;0.80;99.90
33011;DHT22;19370;48.562;9.196;2022-12-10T17:23:04;0.70;99.90
33011;DHT22;19370;48.562;9.196;2022-12-10T17:25:30;0.60;99.90
33011;DHT22;19370;48.562;9.196;2022-12-10T17:27:56;0.60;99.90
33011;DHT22;19370;48.562;9.196;2022-12-10T17:30:23;0.60;99.90
33011;DHT22;19370;48.562;9.196;2022-12-10T17:32:49;0.50;99.90
33011;DHT22;19370;48.562;9.196;2022-12-10T17:35:16;0.50;99.90
33011;DHT22;19370;48.562;9.196;2022-12-10T17:37:42;0.40;99.90
33011;DHT22;19370;48.562;9.196;2022-12-10T17:40:19;0.40;99.90
33011;DHT22;19370;48.562;9.196;2022-12-10T17:42:46;0.40;99.90
33011;DHT22;19370;48.562;9.196;2022-12-10T17:45:13;0.50;99.90
33011;DHT22;19370;48.562;9.196;2022-12-10T17:47:39;0.40;99.90
33011;DHT22;19370;48.562;9.196;2022-12-10T17:50:35;0.40;99.90
33011;DHT22;19370;48.562;9.196;2022-12-10T17:53:03;0.50;99.90
33011;DHT22;19370;48.562;9.196;2022-12-10T17:55:31;0.50;99.90
33011;DHT22;19370;48.562;9.196;2022-12-10T17:57:57;0.50;99.90
33011;DHT22;19370;48.562;9.196;2022-12-10T18:00:29;0.40;99.90
33011;DHT22;19370;48.562;9.196;2022-12-10T18:02:55;0.50;99.90
33011;DHT22;19370;48.562;9.196;2022-12-10T18:05:21;0.50;99.90
33011;DHT22;19370;48.562;9.196;2022-12-10T18:07:48;0.50;99.90